Northfield Center, Ohio
Current Conditions -  °F | °C
As of 8:53 AM on Thursday 29 Jan 2015 (Local Time) from KBKL Reporting Station
Overcast Overcast  
Wind Chill: 22°   Ceiling: 4900
Heat Index: 34°   Visibility: 10mi
Dew Point: 15°   Wind: 24mph
Humidity: 46%   Direction: 160°SSE
Pressure: 29.82"   Gusts: 39mph
Location:  41.3128°N, 81.5476°W
Report Text: KBKL 291353Z 16021G34KT 10SM OVC049 01/M09 A2982 RMK AO2 PK WND 16034/1349 RAB24E34UPB38E47 SLP104 P0000 T00111094
Loading
Personal Weather Stations






























Interactive Weather Map New forecast layout! Learn more

10-Day Weather Forecast

Advertisements
Track Severe Weather on mobile